createdAt,value
2019-04-21T00:01:08.787Z,14.70
2019-04-21T00:03:45.366Z,14.70
2019-04-21T00:06:33.619Z,14.80
2019-04-21T00:09:07.452Z,14.70
2019-04-21T00:11:28.118Z,14.70
2019-04-21T00:13:59.402Z,14.70
2019-04-21T00:16:17.218Z,14.70
2019-04-21T00:18:59.151Z,14.70
2019-04-21T00:21:29.152Z,14.70
2019-04-21T00:24:24.169Z,14.70
2019-04-21T00:27:02.505Z,14.80
2019-04-21T00:29:38.372Z,14.80
2019-04-21T00:31:57.962Z,14.90
2019-04-21T00:34:17.688Z,14.90
2019-04-21T00:36:59.914Z,14.90
2019-04-21T00:39:49.067Z,14.90
2019-04-21T00:42:11.199Z,14.90
2019-04-21T00:44:30.822Z,14.80
2019-04-21T00:47:05.180Z,14.80
2019-04-21T00:49:47.314Z,14.80
2019-04-21T00:52:43.661Z,14.80
2019-04-21T00:55:14.004Z,14.90
2019-04-21T00:57:38.784Z,14.90
2019-04-21T01:00:14.107Z,14.90
2019-04-21T01:02:47.240Z,14.90
2019-04-21T01:05:18.536Z,14.90
2019-04-21T01:07:44.477Z,14.90
2019-04-21T01:10:06.623Z,14.90
2019-04-21T01:12:49.264Z,14.90
2019-04-21T01:15:24.668Z,14.90
2019-04-21T01:17:48.121Z,14.90
2019-04-21T01:20:13.229Z,14.90
2019-04-21T01:22:28.712Z,14.90
2019-04-21T01:25:09.053Z,14.90
2019-04-21T01:27:52.146Z,15.00
2019-04-21T01:30:23.715Z,15.00
2019-04-21T01:32:53.150Z,14.90
2019-04-21T01:35:30.096Z,14.90
2019-04-21T01:37:57.161Z,14.90
2019-04-21T01:40:29.661Z,14.80
2019-04-21T01:42:55.651Z,14.80
2019-04-21T01:45:31.692Z,14.80
2019-04-21T01:48:01.169Z,14.70
2019-04-21T01:50:36.539Z,14.70
2019-04-21T01:53:17.567Z,14.70
2019-04-21T01:55:48.539Z,14.70
2019-04-21T01:58:15.947Z,14.70
2019-04-21T02:00:55.482Z,14.60
2019-04-21T02:03:41.245Z,14.60
2019-04-21T02:05:59.688Z,14.60
2019-04-21T02:08:27.401Z,14.60
2019-04-21T02:11:07.532Z,14.60
2019-04-21T02:13:28.274Z,14.60
2019-04-21T02:16:08.197Z,14.60
2019-04-21T02:18:33.986Z,14.60
2019-04-21T02:20:53.870Z,14.60
2019-04-21T02:23:46.787Z,14.60
2019-04-21T02:26:09.905Z,14.60
2019-04-21T02:29:00.191Z,14.60
2019-04-21T02:31:22.643Z,14.60
2019-04-21T02:33:56.315Z,14.60
2019-04-21T02:36:30.856Z,14.50
2019-04-21T02:44:02.577Z,14.50
2019-04-21T02:46:35.912Z,14.50
2019-04-21T02:51:33.641Z,14.40
2019-04-21T02:54:31.835Z,14.40
2019-04-21T02:56:36.621Z,14.40
2019-04-21T02:59:17.137Z,14.50
2019-04-21T03:04:32.246Z,14.50
2019-04-21T03:07:13.369Z,14.50
2019-04-21T03:12:24.607Z,14.50
2019-04-21T03:14:56.018Z,14.50
2019-04-21T03:17:26.801Z,14.50
2019-04-21T03:22:20.031Z,14.40
2019-04-21T03:27:28.849Z,14.20
2019-04-21T03:29:59.419Z,14.20
2019-04-21T03:37:37.160Z,14.10
2019-04-21T03:45:06.990Z,14.00
2019-04-21T03:47:30.885Z,14.00
2019-04-21T03:50:22.712Z,13.90
2019-04-21T03:52:42.398Z,13.80
2019-04-21T04:00:42.641Z,13.50
2019-04-21T04:03:35.468Z,13.40
2019-04-21T04:08:43.656Z,13.20
2019-04-21T04:13:37.616Z,13.00
2019-04-21T04:16:10.549Z,13.00
2019-04-21T04:21:12.203Z,12.90
2019-04-21T04:24:02.359Z,12.90
2019-04-21T04:28:50.177Z,13.10
2019-04-21T04:31:28.778Z,13.20
2019-04-21T04:33:57.750Z,13.30
2019-04-21T04:36:31.165Z,13.50
2019-04-21T04:39:09.256Z,13.50
2019-04-21T04:44:11.184Z,13.80
2019-04-21T04:46:44.253Z,13.90
2019-04-21T04:49:10.962Z,14.10
2019-04-21T04:54:33.792Z,14.50
2019-04-21T04:56:43.081Z,14.60
2019-04-21T04:59:35.413Z,14.70
2019-04-21T05:01:53.234Z,14.80
2019-04-21T05:04:18.149Z,14.90
2019-04-21T05:09:15.266Z,15.20
2019-04-21T05:11:50.893Z,15.30
2019-04-21T05:14:13.400Z,15.40
2019-04-21T05:16:55.413Z,15.50
2019-04-21T05:21:45.570Z,15.70
2019-04-21T05:24:15.013Z,15.80
2019-04-21T05:26:45.986Z,15.90
2019-04-21T05:29:11.122Z,16.00
2019-04-21T05:32:00.544Z,16.20
2019-04-21T05:34:26.883Z,16.30
2019-04-21T05:37:07.475Z,16.40
2019-04-21T05:39:52.385Z,16.50
2019-04-21T05:42:23.686Z,16.70
2019-04-21T05:45:20.490Z,16.80
2019-04-21T05:47:55.952Z,16.90
2019-04-21T05:50:07.857Z,17.00
2019-04-21T05:52:34.039Z,17.10
2019-04-21T05:55:19.906Z,17.20
2019-04-21T05:57:46.713Z,17.30
2019-04-21T06:00:23.067Z,17.50
2019-04-21T06:02:53.445Z,17.60
2019-04-21T06:07:57.077Z,17.70
2019-04-21T06:10:27.455Z,17.90
2019-04-21T06:12:59.642Z,17.80
2019-04-21T06:15:34.890Z,17.90
2019-04-21T06:18:05.067Z,18.00
2019-04-21T06:20:35.442Z,18.10
2019-04-21T06:23:02.939Z,18.20
2019-04-21T06:25:51.802Z,18.40
2019-04-21T06:28:04.560Z,18.50
2019-04-21T06:30:47.030Z,18.50
2019-04-21T06:33:10.728Z,18.50
2019-04-21T06:35:58.813Z,18.60
2019-04-21T06:38:21.294Z,18.70
2019-04-21T06:40:48.365Z,18.70
2019-04-21T06:43:40.371Z,18.80
2019-04-21T06:45:57.285Z,18.90
2019-04-21T06:48:25.879Z,19.00
2019-04-21T06:51:06.869Z,19.20
2019-04-21T06:53:42.541Z,19.20
2019-04-21T06:56:01.824Z,19.20
2019-04-21T06:58:26.277Z,19.30
2019-04-21T07:01:02.460Z,19.40
2019-04-21T07:03:34.746Z,19.40
2019-04-21T07:06:07.991Z,19.20
2019-04-21T07:08:46.205Z,19.00
2019-04-21T07:11:08.661Z,19.20
2019-04-21T07:13:41.506Z,19.50
2019-04-21T07:16:21.942Z,19.70
2019-04-21T07:18:51.266Z,19.50
2019-04-21T07:21:13.865Z,19.60
2019-04-21T07:23:53.550Z,19.80
2019-04-21T07:26:19.431Z,19.90
2019-04-21T07:28:56.837Z,20.10
2019-04-21T07:31:25.432Z,20.40
2019-04-21T07:34:00.224Z,20.50
2019-04-21T07:36:42.978Z,20.70
2019-04-21T07:38:57.157Z,20.50
2019-04-21T07:41:24.924Z,20.60
2019-04-21T07:44:08.789Z,20.70
2019-04-21T07:46:42.799Z,20.80
2019-04-21T07:49:22.197Z,20.90
2019-04-21T07:51:57.060Z,20.80
2019-04-21T07:54:33.798Z,21.00
2019-04-21T07:56:41.894Z,21.10
2019-04-21T07:59:42.607Z,21.30
2019-04-21T08:02:02.525Z,21.40
2019-04-21T08:07:10.569Z,21.60
2019-04-21T08:09:32.901Z,21.70
2019-04-21T08:12:04.353Z,21.90
2019-04-21T08:14:35.327Z,21.90
2019-04-21T08:17:09.822Z,21.80
2019-04-21T08:19:36.982Z,21.90
2019-04-21T08:22:18.575Z,22.10
2019-04-21T08:24:43.851Z,22.30
2019-04-21T08:27:23.539Z,22.50
2019-04-21T08:29:47.665Z,22.70
2019-04-21T08:32:26.509Z,22.80
2019-04-21T08:34:54.896Z,22.90
2019-04-21T08:37:21.582Z,23.00
2019-04-21T08:40:04.474Z,23.10
2019-04-21T08:42:25.421Z,23.10
2019-04-21T08:44:54.378Z,23.20
2019-04-21T08:47:25.675Z,23.30
2019-04-21T08:49:55.888Z,23.20
2019-04-21T08:52:37.056Z,23.10
2019-04-21T08:55:03.331Z,23.00
2019-04-21T08:57:50.758Z,23.10
2019-04-21T09:00:36.874Z,23.10
2019-04-21T09:03:12.796Z,23.10
2019-04-21T09:05:35.600Z,23.10
2019-04-21T09:08:13.733Z,23.10
2019-04-21T09:10:42.526Z,23.10
2019-04-21T09:13:10.186Z,23.00
2019-04-21T09:15:43.031Z,22.90
2019-04-21T09:18:08.443Z,23.00
2019-04-21T09:23:13.293Z,23.20
2019-04-21T09:28:18.434Z,23.30
2019-04-21T09:30:40.495Z,23.40
2019-04-21T09:33:05.200Z,23.40
2019-04-21T09:35:35.809Z,23.20
2019-04-21T09:38:16.215Z,23.10
2019-04-21T09:40:42.307Z,23.10
2019-04-21T09:43:11.944Z,23.00
2019-04-21T09:45:40.511Z,23.10
2019-04-21T09:48:16.692Z,23.20
2019-04-21T09:50:41.519Z,23.30
2019-04-21T09:53:20.691Z,23.30
2019-04-21T09:55:51.268Z,23.20
2019-04-21T09:58:24.296Z,23.10
2019-04-21T10:01:00.011Z,23.10
2019-04-21T10:03:20.844Z,23.00
2019-04-21T10:05:50.033Z,22.90
2019-04-21T10:08:19.417Z,22.80
2019-04-21T10:10:49.120Z,22.80
2019-04-21T10:13:18.962Z,22.80
2019-04-21T10:15:50.210Z,22.80
2019-04-21T10:18:22.893Z,22.70
2019-04-21T10:20:52.303Z,22.70
2019-04-21T10:23:23.185Z,22.70
2019-04-21T10:25:52.736Z,22.80
2019-04-21T10:28:23.302Z,22.80
2019-04-21T10:30:53.180Z,22.70
2019-04-21T10:33:22.531Z,22.70
2019-04-21T10:35:53.066Z,22.70
2019-04-21T10:38:32.735Z,22.70
2019-04-21T10:40:54.076Z,22.60
2019-04-21T10:43:24.344Z,22.70
2019-04-21T10:45:54.916Z,22.70
2019-04-21T10:48:25.213Z,22.70
2019-04-21T10:50:55.295Z,22.70
2019-04-21T10:53:27.145Z,22.70
2019-04-21T10:56:10.494Z,22.60
2019-04-21T10:58:30.040Z,22.60
2019-04-21T11:01:04.254Z,22.60
2019-04-21T11:03:40.394Z,22.50
2019-04-21T11:06:12.692Z,22.50
2019-04-21T11:08:45.736Z,22.60
2019-04-21T11:11:14.143Z,22.50
2019-04-21T11:13:44.713Z,22.50
2019-04-21T11:16:15.081Z,22.40
2019-04-21T11:18:46.108Z,22.30
2019-04-21T11:21:16.637Z,22.30
2019-04-21T11:23:46.503Z,22.20
2019-04-21T11:26:16.089Z,22.20
2019-04-21T11:28:47.097Z,22.30
2019-04-21T11:31:18.812Z,22.30
2019-04-21T11:33:49.150Z,22.30
2019-04-21T11:36:19.466Z,22.30
2019-04-21T11:39:12.399Z,22.30
2019-04-21T11:41:32.203Z,22.40
2019-04-21T11:44:01.581Z,22.40
2019-04-21T11:46:30.874Z,22.30
2019-04-21T11:49:00.309Z,22.30
2019-04-21T11:51:30.947Z,22.30
2019-04-21T11:54:01.834Z,22.20
2019-04-21T11:56:32.746Z,22.30
2019-04-21T11:59:03.787Z,22.30
2019-04-21T12:01:33.791Z,22.30
2019-04-21T12:04:05.405Z,22.30
2019-04-21T12:06:41.571Z,22.40
2019-04-21T12:09:09.524Z,22.30
2019-04-21T12:11:39.656Z,22.30
2019-04-21T12:14:12.034Z,22.20
2019-04-21T12:16:43.244Z,22.20
2019-04-21T12:19:12.814Z,22.20
2019-04-21T12:21:53.501Z,22.20
2019-04-21T12:24:13.490Z,22.20
2019-04-21T12:26:44.475Z,22.20
2019-04-21T12:29:14.561Z,22.20
2019-04-21T12:31:59.348Z,22.30
2019-04-21T12:34:30.185Z,22.20
2019-04-21T12:37:01.187Z,22.20
2019-04-21T12:39:32.803Z,22.20
2019-04-21T12:42:02.844Z,22.20
2019-04-21T12:44:33.598Z,22.30
2019-04-21T12:47:03.719Z,22.20
2019-04-21T12:49:33.871Z,22.20
2019-04-21T12:52:03.835Z,22.30
2019-04-21T12:54:33.690Z,22.30
2019-04-21T12:57:05.327Z,22.30
2019-04-21T12:59:36.300Z,22.30
2019-04-21T13:02:07.502Z,22.30
2019-04-21T13:04:37.868Z,22.30
2019-04-21T13:07:07.781Z,22.30
2019-04-21T13:09:37.669Z,22.40
2019-04-21T13:12:07.407Z,22.30
2019-04-21T13:14:37.894Z,22.30
2019-04-21T13:17:07.747Z,22.30
2019-04-21T13:19:37.452Z,22.30
2019-04-21T13:22:07.867Z,22.20
2019-04-21T13:24:37.926Z,22.20
2019-04-21T13:27:09.470Z,22.20
2019-04-21T13:29:39.197Z,22.20
2019-04-21T13:32:10.252Z,22.30
2019-04-21T13:34:40.145Z,22.20
2019-04-21T13:37:09.798Z,22.20
2019-04-21T13:40:20.772Z,22.30
2019-04-21T13:42:36.598Z,22.30
2019-04-21T13:45:02.429Z,22.30
2019-04-21T13:47:32.926Z,22.20
2019-04-21T13:50:03.677Z,22.20
2019-04-21T13:52:34.094Z,22.30
2019-04-21T13:55:05.539Z,22.20
2019-04-21T13:57:36.606Z,22.30
2019-04-21T14:00:10.907Z,22.30
2019-04-21T14:02:40.875Z,22.30
2019-04-21T14:05:13.713Z,22.20
2019-04-21T14:07:42.188Z,22.20
2019-04-21T14:10:12.746Z,22.20
2019-04-21T14:12:44.496Z,22.20
2019-04-21T14:15:14.641Z,22.20
2019-04-21T14:17:44.691Z,22.20
2019-04-21T14:20:15.350Z,22.10
2019-04-21T14:22:46.355Z,22.20
2019-04-21T14:25:17.394Z,22.20
2019-04-21T14:27:50.012Z,22.20
2019-04-21T14:30:18.721Z,22.10
2019-04-21T14:32:49.842Z,22.10
2019-04-21T14:35:19.254Z,22.00
2019-04-21T14:37:48.860Z,22.10
2019-04-21T14:40:23.663Z,22.10
2019-04-21T14:42:49.967Z,22.10
2019-04-21T14:45:21.341Z,22.10
2019-04-21T14:48:09.217Z,22.10
2019-04-21T14:50:42.044Z,22.10
2019-04-21T14:53:20.219Z,22.10
2019-04-21T14:55:51.215Z,22.10
2019-04-21T14:58:21.203Z,22.00
2019-04-21T15:00:53.646Z,22.00
2019-04-21T15:03:23.654Z,22.00
2019-04-21T15:05:53.557Z,21.90
2019-04-21T15:08:25.003Z,22.00
2019-04-21T15:10:55.008Z,21.90
2019-04-21T15:13:25.829Z,21.90
2019-04-21T15:15:56.278Z,21.90
2019-04-21T15:18:26.495Z,21.80
2019-04-21T15:20:57.396Z,21.80
2019-04-21T15:23:28.705Z,21.80
2019-04-21T15:25:59.920Z,21.80
2019-04-21T15:28:32.078Z,21.80
2019-04-21T15:31:01.081Z,21.80
2019-04-21T15:33:30.893Z,21.80
2019-04-21T15:36:00.851Z,21.70
2019-04-21T15:38:30.164Z,21.70
2019-04-21T15:41:04.123Z,21.70
2019-04-21T15:43:31.374Z,21.70
2019-04-21T15:46:02.468Z,21.70
2019-04-21T15:48:33.108Z,21.70
2019-04-21T15:51:05.666Z,21.60
2019-04-21T15:53:37.334Z,21.60
2019-04-21T15:56:15.211Z,21.60
2019-04-21T15:59:01.504Z,21.60
2019-04-21T16:01:38.905Z,21.60
2019-04-21T16:04:08.784Z,21.70
2019-04-21T16:06:39.408Z,21.70
2019-04-21T16:09:16.107Z,21.60
2019-04-21T16:11:42.059Z,21.60
2019-04-21T16:14:11.934Z,21.50
2019-04-21T16:16:41.279Z,21.50
2019-04-21T16:19:12.136Z,21.50
2019-04-21T16:21:44.352Z,21.50
2019-04-21T16:24:14.272Z,21.50
2019-04-21T16:26:44.631Z,21.50
2019-04-21T16:29:15.353Z,21.40
2019-04-21T16:31:46.646Z,21.40
2019-04-21T16:34:17.767Z,21.40
2019-04-21T16:36:49.676Z,21.30
2019-04-21T16:39:19.762Z,21.30
2019-04-21T16:41:50.006Z,21.20
2019-04-21T16:44:21.022Z,21.20
2019-04-21T16:46:51.677Z,21.20
2019-04-21T16:49:22.036Z,21.10
2019-04-21T16:51:53.952Z,21.10
2019-04-21T16:54:26.234Z,21.00
2019-04-21T16:57:03.771Z,21.00
2019-04-21T16:59:36.702Z,21.00
2019-04-21T17:02:07.037Z,21.00
2019-04-21T17:04:36.403Z,20.90
2019-04-21T17:07:07.301Z,20.90
2019-04-21T17:09:38.830Z,20.90
2019-04-21T17:12:11.938Z,20.90
2019-04-21T17:14:53.546Z,20.80
2019-04-21T17:17:32.527Z,20.80
2019-04-21T17:19:47.053Z,20.70
2019-04-21T17:22:15.677Z,20.60
2019-04-21T17:24:46.466Z,20.60
2019-04-21T17:27:17.482Z,20.60
2019-04-21T17:29:48.497Z,20.50
2019-04-21T17:32:18.359Z,20.50
2019-04-21T17:34:48.112Z,20.40
2019-04-21T17:37:20.511Z,20.40
2019-04-21T17:39:49.247Z,20.30
2019-04-21T17:42:33.059Z,20.20
2019-04-21T17:44:51.457Z,20.20
2019-04-21T17:47:28.926Z,20.10
2019-04-21T17:50:07.773Z,20.00
2019-04-21T17:52:51.736Z,20.00
2019-04-21T17:55:27.826Z,20.00
2019-04-21T17:58:09.382Z,20.00
2019-04-21T18:01:06.572Z,20.00
2019-04-21T18:03:28.074Z,20.00
2019-04-21T18:05:47.468Z,19.90
2019-04-21T18:08:23.562Z,20.00
2019-04-21T18:10:48.024Z,19.90
2019-04-21T18:13:08.792Z,19.80
2019-04-21T18:15:47.024Z,19.70
2019-04-21T18:18:06.436Z,19.60
2019-04-21T18:20:37.711Z,19.60
2019-04-21T18:23:34.867Z,19.60
2019-04-21T18:26:03.839Z,19.50
2019-04-21T18:28:28.427Z,19.50
2019-04-21T18:31:06.948Z,19.50
2019-04-21T18:33:40.476Z,19.40
2019-04-21T18:36:14.419Z,19.30
2019-04-21T18:39:04.276Z,19.30
2019-04-21T18:41:19.708Z,19.30
2019-04-21T18:44:30.256Z,19.30
2019-04-21T18:46:58.417Z,19.20
2019-04-21T18:49:11.313Z,19.20
2019-04-21T18:52:01.168Z,19.20
2019-04-21T18:54:37.210Z,19.10
2019-04-21T18:57:04.378Z,19.10
2019-04-21T18:59:31.520Z,19.00
2019-04-21T19:02:02.462Z,19.00
2019-04-21T19:04:30.028Z,18.90
2019-04-21T19:07:16.865Z,18.90
2019-04-21T19:12:23.783Z,18.80
2019-04-21T19:14:50.554Z,18.70
2019-04-21T19:17:48.714Z,18.60
2019-04-21T19:22:29.346Z,18.40
2019-04-21T19:24:59.365Z,18.40
2019-04-21T19:27:27.691Z,18.40
2019-04-21T19:30:05.642Z,18.30
2019-04-21T19:32:28.794Z,18.20
2019-04-21T19:34:45.477Z,18.20
2019-04-21T19:37:19.131Z,18.20
2019-04-21T19:40:00.399Z,18.10
2019-04-21T19:42:25.627Z,18.10
2019-04-21T19:45:06.105Z,18.10
2019-04-21T19:47:41.116Z,18.10
2019-04-21T19:50:12.148Z,18.10
2019-04-21T19:52:34.577Z,18.10
2019-04-21T19:54:54.980Z,18.00
2019-04-21T19:57:26.859Z,18.00
2019-04-21T20:00:00.370Z,18.00
2019-04-21T20:02:28.001Z,18.00
2019-04-21T20:05:02.133Z,18.00
2019-04-21T20:07:44.519Z,18.00
2019-04-21T20:10:25.684Z,18.00
2019-04-21T20:12:50.386Z,18.00
2019-04-21T20:15:31.727Z,17.90
2019-04-21T20:17:50.080Z,17.90
2019-04-21T20:20:07.070Z,17.90
2019-04-21T20:22:41.716Z,17.80
2019-04-21T20:25:12.620Z,17.80
2019-04-21T20:27:49.386Z,17.70
2019-04-21T20:30:31.374Z,17.60
2019-04-21T20:33:14.249Z,17.50
2019-04-21T20:35:48.557Z,17.50
2019-04-21T20:38:04.143Z,17.50
2019-04-21T20:40:34.706Z,17.30
2019-04-21T20:43:11.388Z,17.30
2019-04-21T20:45:44.253Z,17.20
2019-04-21T20:47:54.662Z,17.10
2019-04-21T20:50:36.451Z,17.00
2019-04-21T20:53:11.220Z,17.00
2019-04-21T20:55:44.114Z,17.00
2019-04-21T20:58:15.079Z,16.90
2019-04-21T21:01:03.037Z,16.80
2019-04-21T21:03:24.267Z,16.80
2019-04-21T21:05:49.741Z,16.80
2019-04-21T21:08:31.173Z,16.70
2019-04-21T21:10:53.195Z,16.50
2019-04-21T21:13:36.653Z,16.50
2019-04-21T21:16:10.243Z,16.50
2019-04-21T21:18:53.331Z,16.40
2019-04-21T21:21:00.376Z,16.40
2019-04-21T21:23:37.118Z,16.30
2019-04-21T21:26:11.448Z,16.30
2019-04-21T21:28:32.586Z,16.20
2019-04-21T21:31:13.216Z,16.10
2019-04-21T21:33:50.655Z,16.10
2019-04-21T21:36:16.640Z,16.00
2019-04-21T21:38:43.711Z,15.90
2019-04-21T21:41:07.645Z,15.80
2019-04-21T21:43:31.344Z,15.80
2019-04-21T21:46:04.856Z,15.70
2019-04-21T21:48:44.923Z,15.60
2019-04-21T21:51:11.110Z,15.50
2019-04-21T21:53:38.203Z,15.50
2019-04-21T21:56:06.906Z,15.40
2019-04-21T21:58:41.934Z,15.50
2019-04-21T22:01:11.743Z,15.50
2019-04-21T22:03:46.546Z,15.40
2019-04-21T22:06:17.539Z,15.30
2019-04-21T22:08:43.965Z,15.30
2019-04-21T22:11:13.717Z,15.30
2019-04-21T22:13:50.902Z,15.30
2019-04-21T22:16:17.768Z,15.20
2019-04-21T22:19:06.907Z,15.20
2019-04-21T22:21:36.583Z,15.20
2019-04-21T22:23:59.399Z,15.10
2019-04-21T22:26:20.892Z,15.10
2019-04-21T22:28:51.813Z,15.00
2019-04-21T22:31:26.883Z,14.90
2019-04-21T22:33:58.576Z,14.90
2019-04-21T22:36:35.275Z,14.80
2019-04-21T22:39:13.108Z,14.70
2019-04-21T22:41:34.609Z,14.60
2019-04-21T22:43:59.382Z,14.60
2019-04-21T22:46:30.683Z,14.60
2019-04-21T22:49:06.804Z,14.60
2019-04-21T22:51:37.567Z,14.60
2019-04-21T22:54:03.988Z,14.50
2019-04-21T22:56:35.733Z,14.50
2019-04-21T22:59:09.642Z,14.50
2019-04-21T23:01:42.551Z,14.50
2019-04-21T23:04:08.920Z,14.50
2019-04-21T23:06:39.570Z,14.40
2019-04-21T23:09:11.050Z,14.40
2019-04-21T23:11:45.663Z,14.30
2019-04-21T23:14:15.331Z,14.20
2019-04-21T23:16:46.326Z,14.20
2019-04-21T23:19:32.135Z,14.20
2019-04-21T23:22:02.436Z,14.20
2019-04-21T23:24:42.068Z,14.20
2019-04-21T23:27:05.176Z,14.20
2019-04-21T23:29:51.042Z,14.10
2019-04-21T23:32:08.498Z,14.10
2019-04-21T23:34:26.892Z,14.10
2019-04-21T23:37:05.770Z,14.10
2019-04-21T23:39:30.203Z,13.80
2019-04-21T23:41:57.777Z,13.90
2019-04-21T23:44:28.240Z,13.90
2019-04-21T23:47:03.522Z,13.90
2019-04-21T23:49:41.694Z,13.80
2019-04-21T23:52:04.657Z,13.80
2019-04-21T23:54:31.518Z,13.80
2019-04-21T23:57:02.903Z,13.80
2019-04-21T23:59:38.641Z,13.80
